Airport View

Enter AWOS ICAO identifier for current METAR.

ex. KFNL

KROG 212258Z 18011KT 10SM FEW042 SCT055 BKN110 28/19 A3006 RMK AO2 SLP165 T02780194

21 Sep 2019 23:57

Frequency: 134.375

Phone: 479-631-9196

Other Area AWOS: KVBT - KXNA - KASG - KSLG

TAF KROG 211725Z 2118/2218 17015G24KT P6SM BKN035 BKN250 FM220000 15013KT P6SM BKN250 FM221200 17012KT P6SM BKN025 FM221500 19017G25KT P6SM SCT025 BKN035